Time;durP1;ratioP1;P1;durP2;ratioP2;P2;SDS_P1;SDS_P2;PMS_P1;PMS_P2;Temp;Humidity;BMP_temperature;BMP_pressure;BME280_temperature;BME280_humidity;BME280_pressure;Samples;Min_cycle;Max_cycle;Signal;HPM_P1;HPM_P2
2022/09/21 00:01:49;;;;;;;;;;;15.50;64.20;;;;;;5017479;28;20419;-90
2022/09/21 00:04:15;;;;;;;;;;;15.40;64.20;;;;;;5018328;28;19913;-89
2022/09/21 00:06:41;;;;;;;;;;;15.40;64.20;;;;;;5016707;28;19971;-91
2022/09/21 00:09:08;;;;;;;;;;;15.40;64.20;;;;;;4984493;28;20298;-90
2022/09/21 00:11:34;;;;;;;;;;;15.40;64.20;;;;;;5018243;28;19948;-88
2022/09/21 00:14:03;;;;;;;;;;;15.40;64.30;;;;;;5016195;28;19922;-89
2022/09/21 00:16:29;;;;;;;;;;;15.40;64.30;;;;;;5017630;28;19918;-91
2022/09/21 00:18:55;;;;;;;;;;;15.40;64.30;;;;;;5017262;28;20008;-87
2022/09/21 00:21:22;;;;;;;;;;;15.30;64.30;;;;;;5017280;28;19999;-91
2022/09/21 00:23:48;;;;;;;;;;;15.30;64.30;;;;;;5001376;28;20377;-90
2022/09/21 00:26:15;;;;;;;;;;;15.30;64.30;;;;;;5016567;28;20017;-87
2022/09/21 00:28:43;;;;;;;;;;;15.30;64.40;;;;;;5017362;28;19913;-86
2022/09/21 00:31:11;;;;;;;;;;;15.30;64.40;;;;;;5016393;28;19923;-91
2022/09/21 00:33:37;;;;;;;;;;;15.30;64.40;;;;;;5016274;28;19981;-90
2022/09/21 00:36:03;;;;;;;;;;;15.30;64.40;;;;;;5000155;28;19925;-89
2022/09/21 00:38:29;;;;;;;;;;;15.20;64.40;;;;;;5015880;28;19916;-90
2022/09/21 00:40:55;;;;;;;;;;;15.20;64.40;;;;;;5016004;28;19917;-89
2022/09/21 00:43:21;;;;;;;;;;;15.20;64.40;;;;;;5016169;28;19924;-90
2022/09/21 00:45:48;;;;;;;;;;;15.20;64.40;;;;;;4984555;28;20020;-90
2022/09/21 00:48:14;;;;;;;;;;;15.20;64.50;;;;;;5023451;28;20491;-86
2022/09/21 00:50:43;;;;;;;;;;;15.20;64.50;;;;;;5003568;28;19956;-92
2022/09/21 00:53:08;;;;;;;;;;;15.10;64.50;;;;;;5016021;28;19910;-87
2022/09/21 00:55:36;;;;;;;;;;;15.10;64.50;;;;;;5015947;28;20423;-90
2022/09/21 00:58:08;;;;;;;;;;;15.10;64.50;;;;;;5015816;28;20000;-88
2022/09/21 01:00:35;;;;;;;;;;;15.10;64.50;;;;;;5015766;28;20353;-89
2022/09/21 01:03:01;;;;;;;;;;;15.10;64.50;;;;;;5015709;28;19915;-92
2022/09/21 01:05:27;;;;;;;;;;;15.10;65.20;;;;;;5015728;28;19959;-91
2022/09/21 01:07:54;;;;;;;;;;;15.10;64.60;;;;;;5015604;28;19909;-89
2022/09/21 01:10:20;;;;;;;;;;;15.00;64.50;;;;;;5016666;28;20436;-90
2022/09/21 01:13:04;;;;;;;;;;;15.00;64.60;;;;;;5016739;28;19964;-87
2022/09/21 01:15:45;;;;;;;;;;;15.00;64.60;;;;;;5016583;28;19921;-88
2022/09/21 01:18:17;;;;;;;;;;;15.00;64.60;;;;;;5016869;28;19913;-91
2022/09/21 01:21:01;;;;;;;;;;;15.00;64.60;;;;;;5015542;28;20000;-90
2022/09/21 01:23:39;;;;;;;;;;;15.00;64.60;;;;;;4998951;28;20374;-89
2022/09/21 01:26:11;;;;;;;;;;;15.00;64.60;;;;;;5015688;28;20385;-91
2022/09/21 01:28:49;;;;;;;;;;;14.90;65.20;;;;;;4999134;28;20373;-91
2022/09/21 01:31:19;;;;;;;;;;;14.90;64.60;;;;;;5015147;28;19913;-90
2022/09/21 01:33:47;;;;;;;;;;;14.90;64.60;;;;;;5016075;28;19922;-86
2022/09/21 01:36:15;;;;;;;;;;;14.90;64.70;;;;;;5015368;28;19920;-88
2022/09/21 01:38:44;;;;;;;;;;;14.90;64.70;;;;;;5016555;28;19913;-90
2022/09/21 01:41:11;;;;;;;;;;;14.90;64.70;;;;;;5014961;28;20293;-89
2022/09/21 01:43:42;;;;;;;;;;;14.90;64.70;;;;;;5016512;28;19921;-90
2022/09/21 01:46:15;;;;;;;;;;;14.80;64.70;;;;;;5010590;28;19957;-89
2022/09/21 01:48:43;;;;;;;;;;;14.90;64.70;;;;;;5014702;28;19956;-90
2022/09/21 01:51:11;;;;;;;;;;;14.80;64.70;;;;;;5016377;28;19910;-91
2022/09/21 01:53:39;;;;;;;;;;;14.80;64.70;;;;;;5014684;28;19918;-87
2022/09/21 01:56:17;;;;;;;;;;;14.80;64.70;;;;;;5014585;28;20021;-88
2022/09/21 01:59:00;;;;;;;;;;;14.80;64.70;;;;;;5016218;28;19966;-90
2022/09/21 02:01:28;;;;;;;;;;;14.80;64.80;;;;;;5016691;28;19920;-90
2022/09/21 02:03:56;;;;;;;;;;;14.70;64.70;;;;;;5017447;28;19959;-89
2022/09/21 02:06:24;;;;;;;;;;;14.70;64.70;;;;;;5019074;28;20366;-89
2022/09/21 02:08:50;;;;;;;;;;;14.70;64.80;;;;;;5016729;28;19916;-84
2022/09/21 02:11:16;;;;;;;;;;;14.70;64.80;;;;;;4983368;28;20008;-89
2022/09/21 02:13:44;;;;;;;;;;;14.70;64.80;;;;;;5014874;28;19929;-88
2022/09/21 02:16:22;;;;;;;;;;;14.70;64.80;;;;;;5014720;28;19917;-88
2022/09/21 02:18:58;;;;;;;;;;;14.70;64.80;;;;;;5019141;28;19913;-85
2022/09/21 02:21:32;;;;;;;;;;;14.60;64.80;;;;;;5031854;28;19914;-88
2022/09/21 02:23:57;;;;;;;;;;;14.60;64.80;;;;;;5015002;28;19949;-90
2022/09/21 02:26:28;;;;;;;;;;;14.60;64.80;;;;;;5014883;28;19916;-89
2022/09/21 02:29:03;;;;;;;;;;;14.60;64.90;;;;;;5014560;28;20004;-90
2022/09/21 02:31:31;;;;;;;;;;;14.60;64.90;;;;;;5014353;28;19957;-90
2022/09/21 02:34:09;;;;;;;;;;;14.60;64.90;;;;;;5014730;28;19963;-88
2022/09/21 02:36:38;;;;;;;;;;;14.60;64.90;;;;;;5031606;28;20323;-88
2022/09/21 02:39:09;;;;;;;;;;;14.50;64.90;;;;;;5014170;28;19910;-88
2022/09/21 02:41:35;;;;;;;;;;;14.50;64.90;;;;;;5030727;28;19914;-88
2022/09/21 02:44:04;;;;;;;;;;;14.50;64.90;;;;;;5014517;28;19909;-88
2022/09/21 02:46:48;;;;;;;;;;;14.50;64.90;;;;;;5014765;28;19914;-87
2022/09/21 02:49:19;;;;;;;;;;;14.50;64.90;;;;;;5014385;28;19965;-88
2022/09/21 02:51:46;;;;;;;;;;;14.40;64.90;;;;;;5014498;28;19913;-90
2022/09/21 02:54:14;;;;;;;;;;;14.40;64.90;;;;;;4997411;28;19921;-88
2022/09/21 02:56:45;;;;;;;;;;;14.40;64.90;;;;;;5014721;28;19913;-87
2022/09/21 02:59:11;;;;;;;;;;;14.40;64.90;;;;;;5031284;28;19913;-89
2022/09/21 03:01:38;;;;;;;;;;;14.40;64.90;;;;;;4997930;28;20028;-91
2022/09/21 03:04:03;;;;;;;;;;;14.40;65.00;;;;;;5015444;28;19914;-88
2022/09/21 03:06:30;;;;;;;;;;;14.30;64.80;;;;;;4998084;28;19924;-90
2022/09/21 03:08:57;;;;;;;;;;;14.40;64.90;;;;;;5014580;28;19913;-89
2022/09/21 03:11:23;;;;;;;;;;;14.30;64.90;;;;;;5018039;28;19918;-90
2022/09/21 03:13:48;;;;;;;;;;;14.30;64.90;;;;;;5018224;28;19945;-89
2022/09/21 03:16:15;;;;;;;;;;;14.30;64.90;;;;;;5018924;28;20342;-89
2022/09/21 03:18:42;;;;;;;;;;;14.30;64.90;;;;;;5023811;28;19925;-86
2022/09/21 03:21:08;;;;;;;;;;;14.20;64.90;;;;;;5016857;28;19924;-87
2022/09/21 03:23:34;;;;;;;;;;;14.20;64.90;;;;;;4996218;28;19913;-83
2022/09/21 03:26:00;;;;;;;;;;;14.20;64.90;;;;;;5021853;28;19974;-87
2022/09/21 03:28:25;;;;;;;;;;;14.20;64.90;;;;;;5038835;28;19910;-85
2022/09/21 03:30:51;;;;;;;;;;;14.20;64.90;;;;;;5036351;28;19924;-91
2022/09/21 03:33:18;;;;;;;;;;;14.20;64.90;;;;;;5018589;28;20004;-90
2022/09/21 03:35:44;;;;;;;;;;;14.20;65.00;;;;;;5017552;28;19928;-86
2022/09/21 03:38:10;;;;;;;;;;;14.10;64.90;;;;;;5000951;28;20020;-90
2022/09/21 03:40:35;;;;;;;;;;;14.10;64.90;;;;;;5017266;28;20036;-89
2022/09/21 03:43:02;;;;;;;;;;;14.10;64.90;;;;;;5000831;28;19913;-86
2022/09/21 03:45:27;;;;;;;;;;;14.10;64.90;;;;;;5018401;28;19914;-86
2022/09/21 03:47:56;;;;;;;;;;;14.00;64.90;;;;;;5018124;28;20000;-90
2022/09/21 03:50:23;;;;;;;;;;;14.00;64.90;;;;;;5017359;28;19971;-90
2022/09/21 03:52:48;;;;;;;;;;;14.00;65.00;;;;;;5017662;28;19913;-91
2022/09/21 03:55:14;;;;;;;;;;;14.00;64.90;;;;;;5017019;28;19928;-89
2022/09/21 03:57:40;;;;;;;;;;;13.90;64.90;;;;;;5018236;28;20006;-91
2022/09/21 04:00:07;;;;;;;;;;;13.90;64.90;;;;;;5019394;28;20277;-85
2022/09/21 04:02:33;;;;;;;;;;;13.90;64.90;;;;;;5017351;28;19909;-88
2022/09/21 04:04:59;;;;;;;;;;;13.90;65.00;;;;;;5016646;28;20005;-87
2022/09/21 04:07:25;;;;;;;;;;;13.90;65.00;;;;;;5017166;28;19949;-86
2022/09/21 04:09:50;;;;;;;;;;;13.90;65.00;;;;;;5017689;28;20262;-91
2022/09/21 04:12:20;;;;;;;;;;;13.90;64.90;;;;;;5018166;28;19913;-91
2022/09/21 04:14:45;;;;;;;;;;;13.80;64.90;;;;;;5000292;28;20374;-85
2022/09/21 04:17:11;;;;;;;;;;;13.80;64.90;;;;;;5000987;28;19921;-91
2022/09/21 04:19:37;;;;;;;;;;;13.80;64.90;;;;;;5016805;28;19921;-90
2022/09/21 04:22:02;;;;;;;;;;;13.80;64.90;;;;;;5016911;28;19913;-90
2022/09/21 04:24:29;;;;;;;;;;;13.80;64.90;;;;;;5000729;28;20055;-89
2022/09/21 04:26:55;;;;;;;;;;;13.70;64.90;;;;;;5000960;28;19913;-87
2022/09/21 04:29:21;;;;;;;;;;;13.70;64.90;;;;;;5009806;28;19989;-90
2022/09/21 04:31:46;;;;;;;;;;;13.70;64.90;;;;;;4991894;28;20346;-82
2022/09/21 04:34:12;;;;;;;;;;;13.60;64.90;;;;;;5003440;28;19984;-89
2022/09/21 04:36:38;;;;;;;;;;;13.70;65.00;;;;;;5017439;28;19967;-91
2022/09/21 04:39:04;;;;;;;;;;;13.60;64.90;;;;;;5017320;28;19918;-89
2022/09/21 04:41:30;;;;;;;;;;;13.60;64.90;;;;;;5016385;28;19916;-90
2022/09/21 04:43:56;;;;;;;;;;;13.60;65.00;;;;;;5016206;28;20298;-90
2022/09/21 04:46:22;;;;;;;;;;;13.60;64.90;;;;;;4999922;28;19921;-90
2022/09/21 04:48:48;;;;;;;;;;;13.60;65.00;;;;;;4999935;28;19925;-84
2022/09/21 04:51:15;;;;;;;;;;;13.50;64.90;;;;;;5016135;28;19960;-87
2022/09/21 04:53:41;;;;;;;;;;;13.50;65.00;;;;;;5016074;28;20293;-90
2022/09/21 04:56:08;;;;;;;;;;;13.50;65.00;;;;;;5015830;28;20004;-90
2022/09/21 04:58:33;;;;;;;;;;;13.50;65.00;;;;;;4999521;28;19914;-88
2022/09/21 05:01:00;;;;;;;;;;;13.50;65.00;;;;;;4999705;28;19921;-88
2022/09/21 05:03:26;;;;;;;;;;;13.50;65.00;;;;;;5015575;28;19917;-90
2022/09/21 05:05:55;;;;;;;;;;;13.50;65.10;;;;;;5016813;28;20200;-90
2022/09/21 05:11:07;;;;;;;;;;;13.40;65.00;;;;;;5015909;28;19941;-88
2022/09/21 05:13:33;;;;;;;;;;;13.40;65.00;;;;;;5015804;28;19913;-90
2022/09/21 05:15:58;;;;;;;;;;;13.40;65.10;;;;;;5015482;28;20306;-89
2022/09/21 05:18:24;;;;;;;;;;;13.30;65.00;;;;;;5000146;28;19921;-90
2022/09/21 05:20:57;;;;;;;;;;;13.30;65.00;;;;;;5015600;28;19913;-85
2022/09/21 05:23:23;;;;;;;;;;;13.30;65.10;;;;;;4999901;28;19922;-90
2022/09/21 05:25:49;;;;;;;;;;;13.30;65.10;;;;;;5016319;28;20347;-89
2022/09/21 05:28:16;;;;;;;;;;;13.30;65.10;;;;;;5015788;28;19913;-88
2022/09/21 05:30:43;;;;;;;;;;;13.30;65.10;;;;;;5016755;28;19916;-88
2022/09/21 05:33:11;;;;;;;;;;;13.30;65.10;;;;;;4999623;28;19943;-91
2022/09/21 05:35:39;;;;;;;;;;;13.20;65.00;;;;;;5015138;28;19958;-87
2022/09/21 05:38:05;;;;;;;;;;;13.20;65.00;;;;;;4998505;28;19913;-89
2022/09/21 05:40:31;;;;;;;;;;;13.20;65.00;;;;;;5015174;28;20008;-87
2022/09/21 05:42:57;;;;;;;;;;;13.20;65.10;;;;;;5015312;28;20347;-90
2022/09/21 05:45:22;;;;;;;;;;;13.20;65.10;;;;;;5014947;28;19976;-90
2022/09/21 05:47:56;;;;;;;;;;;13.20;65.10;;;;;;4982631;28;20440;-89
2022/09/21 05:50:28;;;;;;;;;;;13.20;65.10;;;;;;5014859;28;19925;-90
2022/09/21 05:52:56;;;;;;;;;;;13.10;65.10;;;;;;5014932;28;20004;-89
2022/09/21 05:55:32;;;;;;;;;;;13.10;65.10;;;;;;5015234;28;20378;-88
2022/09/21 05:58:05;;;;;;;;;;;13.10;65.10;;;;;;5014636;28;19945;-89
2022/09/21 06:00:38;;;;;;;;;;;13.10;65.10;;;;;;5015349;28;20012;-86
2022/09/21 06:03:24;;;;;;;;;;;13.10;65.10;;;;;;5015323;28;19996;-90
2022/09/21 06:05:50;;;;;;;;;;;13.10;65.10;;;;;;5015533;28;19968;-90
2022/09/21 06:08:16;;;;;;;;;;;13.00;65.10;;;;;;5014536;28;19910;-89
2022/09/21 06:10:42;;;;;;;;;;;13.00;65.10;;;;;;4997807;28;19921;-89
2022/09/21 06:13:07;;;;;;;;;;;13.00;65.10;;;;;;5015743;28;19909;-83
2022/09/21 06:15:37;;;;;;;;;;;13.00;65.10;;;;;;5016521;28;19960;-90
2022/09/21 06:18:04;;;;;;;;;;;13.00;65.20;;;;;;5015765;28;19940;-93
2022/09/21 06:20:29;;;;;;;;;;;13.00;65.20;;;;;;4999339;28;19913;-87
2022/09/21 06:23:02;;;;;;;;;;;13.00;65.20;;;;;;5014446;28;19909;-88
2022/09/21 06:25:27;;;;;;;;;;;13.00;65.20;;;;;;5016060;28;19920;-89
2022/09/21 06:27:53;;;;;;;;;;;12.90;65.10;;;;;;5015002;28;19909;-83
2022/09/21 06:30:19;;;;;;;;;;;12.90;65.20;;;;;;5015039;28;19917;-91
2022/09/21 06:32:44;;;;;;;;;;;12.90;65.20;;;;;;5014511;28;19913;-91
2022/09/21 06:35:10;;;;;;;;;;;12.90;65.20;;;;;;4998373;28;19921;-90
2022/09/21 06:37:38;;;;;;;;;;;12.90;65.20;;;;;;5014400;28;19917;-88
2022/09/21 06:40:05;;;;;;;;;;;12.90;65.30;;;;;;5014411;28;19968;-84
2022/09/21 06:42:30;;;;;;;;;;;12.90;65.30;;;;;;4998673;28;20365;-87
2022/09/21 06:44:56;;;;;;;;;;;12.90;65.30;;;;;;5015113;28;19917;-84
2022/09/21 06:47:21;;;;;;;;;;;12.90;65.30;;;;;;5019702;28;20259;-87
2022/09/21 06:49:47;;;;;;;;;;;12.90;65.30;;;;;;5022766;28;20032;-87
2022/09/21 06:52:13;;;;;;;;;;;12.90;65.30;;;;;;5020901;28;19917;-91
2022/09/21 06:54:39;;;;;;;;;;;12.90;65.40;;;;;;5019474;28;20390;-84
2022/09/21 06:57:05;;;;;;;;;;;12.90;65.40;;;;;;5016711;28;19918;-85
2022/09/21 06:59:30;;;;;;;;;;;12.90;65.40;;;;;;5014064;28;19913;-83
2022/09/21 07:01:57;;;;;;;;;;;12.90;65.40;;;;;;5014518;28;20386;-84
2022/09/21 07:04:27;;;;;;;;;;;12.90;65.40;;;;;;5013869;28;20016;-85
2022/09/21 07:06:52;;;;;;;;;;;12.90;65.40;;;;;;5015121;28;19953;-87
2022/09/21 07:09:18;;;;;;;;;;;12.90;65.40;;;;;;5014139;28;19909;-87
2022/09/21 07:11:44;;;;;;;;;;;12.90;65.40;;;;;;4998285;28;19925;-87
2022/09/21 07:14:09;;;;;;;;;;;12.90;65.40;;;;;;4997625;28;19925;-85
2022/09/21 07:16:36;;;;;;;;;;;12.90;65.50;;;;;;5014875;28;19913;-89
2022/09/21 07:19:03;;;;;;;;;;;12.90;65.50;;;;;;5014849;28;20009;-92
2022/09/21 07:21:28;;;;;;;;;;;12.90;65.50;;;;;;5015344;28;19928;-85
2022/09/21 07:23:54;;;;;;;;;;;12.90;65.50;;;;;;5015457;28;19922;-86
2022/09/21 07:26:21;;;;;;;;;;;12.90;65.50;;;;;;5014513;28;19921;-89
2022/09/21 07:28:47;;;;;;;;;;;13.00;65.60;;;;;;5014442;28;19914;-90
2022/09/21 07:31:13;;;;;;;;;;;13.00;65.60;;;;;;5014945;28;19941;-92
2022/09/21 07:33:39;;;;;;;;;;;12.90;65.50;;;;;;5014370;28;19933;-89
2022/09/21 07:36:09;;;;;;;;;;;13.00;65.60;;;;;;4998838;28;19928;-87
2022/09/21 07:38:43;;;;;;;;;;;13.00;65.60;;;;;;5015697;28;19916;-85
2022/09/21 07:41:10;;;;;;;;;;;13.00;66.20;;;;;;5015183;28;19920;-87
2022/09/21 07:43:39;;;;;;;;;;;13.00;65.60;;;;;;5016983;28;19916;-86
2022/09/21 07:46:05;;;;;;;;;;;13.00;65.60;;;;;;5025662;28;19972;-85
2022/09/21 07:48:30;;;;;;;;;;;13.00;65.60;;;;;;5027276;28;19933;-83
2022/09/21 07:51:02;;;;;;;;;;;13.00;65.60;;;;;;5023124;28;19917;-87
2022/09/21 07:53:27;;;;;;;;;;;13.10;65.70;;;;;;5020757;28;19917;-82
2022/09/21 07:55:59;;;;;;;;;;;13.00;65.60;;;;;;4987708;28;19929;-89
2022/09/21 08:01:09;;;;;;;;;;;13.10;65.60;;;;;;5017212;28;19917;-87
2022/09/21 08:03:35;;;;;;;;;;;13.10;65.60;;;;;;4985216;28;20008;-84
2022/09/21 08:06:00;;;;;;;;;;;13.10;65.70;;;;;;5000915;28;19925;-89
2022/09/21 08:08:26;;;;;;;;;;;13.10;65.70;;;;;;5000938;28;20334;-89
2022/09/21 08:10:53;;;;;;;;;;;13.20;65.70;;;;;;5017122;28;19925;-85
2022/09/21 08:13:18;;;;;;;;;;;13.10;65.70;;;;;;5016481;28;19921;-88
2022/09/21 08:15:46;;;;;;;;;;;13.10;65.70;;;;;;5018317;28;20438;-88
2022/09/21 08:18:11;;;;;;;;;;;13.20;65.70;;;;;;5000182;28;19917;-89
2022/09/21 08:20:37;;;;;;;;;;;13.20;65.70;;;;;;5000415;28;19917;-89
2022/09/21 08:23:03;;;;;;;;;;;13.20;65.80;;;;;;5016808;28;20235;-88
2022/09/21 08:25:29;;;;;;;;;;;13.20;65.80;;;;;;5000465;28;19917;-87
2022/09/21 08:27:59;;;;;;;;;;;13.20;65.80;;;;;;5016490;28;20336;-85
2022/09/21 08:30:26;;;;;;;;;;;13.30;65.80;;;;;;5000606;28;19963;-81
2022/09/21 08:32:53;;;;;;;;;;;13.30;65.90;;;;;;4983799;28;20373;-90
2022/09/21 08:35:18;;;;;;;;;;;13.30;65.90;;;;;;5000601;28;19929;-83
2022/09/21 08:37:44;;;;;;;;;;;13.30;66.00;;;;;;5015251;28;19914;-84
2022/09/21 08:40:10;;;;;;;;;;;13.30;66.00;;;;;;5015433;28;19956;-82
2022/09/21 08:42:36;;;;;;;;;;;13.40;66.00;;;;;;5015526;28;19913;-83
2022/09/21 08:45:06;;;;;;;;;;;13.40;66.00;;;;;;5015022;28;19925;-84
2022/09/21 08:47:31;;;;;;;;;;;13.40;66.10;;;;;;5015739;28;19914;-83
2022/09/21 08:49:58;;;;;;;;;;;13.50;66.10;;;;;;5015273;28;19961;-83
2022/09/21 08:52:25;;;;;;;;;;;13.50;66.10;;;;;;5015120;28;19956;-83
2022/09/21 08:54:50;;;;;;;;;;;13.50;66.10;;;;;;5015923;28;20285;-83
2022/09/21 08:57:16;;;;;;;;;;;13.60;66.10;;;;;;5014836;28;19918;-83
2022/09/21 08:59:46;;;;;;;;;;;13.60;66.00;;;;;;4999502;28;19913;-82
2022/09/21 09:02:12;;;;;;;;;;;13.70;66.00;;;;;;5015158;28;19954;-84
2022/09/21 09:04:52;;;;;;;;;;;13.70;66.00;;;;;;4998497;28;20258;-84
2022/09/21 09:07:21;;;;;;;;;;;13.80;66.00;;;;;;5014692;28;20328;-84
2022/09/21 09:10:13;;;;;;;;;;;13.80;65.90;;;;;;5014689;28;19957;-84
2022/09/21 09:12:52;;;;;;;;;;;13.90;65.90;;;;;;4999456;28;19913;-83
2022/09/21 09:15:21;;;;;;;;;;;14.00;65.80;;;;;;5015941;28;19921;-83
2022/09/21 09:18:05;;;;;;;;;;;14.10;65.80;;;;;;5015031;28;20259;-82
2022/09/21 09:20:40;;;;;;;;;;;14.10;65.60;;;;;;4998344;28;19914;-83
2022/09/21 09:23:11;;;;;;;;;;;14.20;65.60;;;;;;5014768;28;19914;-84
2022/09/21 09:25:41;;;;;;;;;;;14.30;65.50;;;;;;5014991;28;19979;-84
2022/09/21 09:28:25;;;;;;;;;;;14.40;65.40;;;;;;5014981;28;19913;-90
2022/09/21 09:30:55;;;;;;;;;;;14.40;65.30;;;;;;5015958;28;19933;-85
2022/09/21 09:33:26;;;;;;;;;;;14.50;65.40;;;;;;5014889;28;19919;-87
2022/09/21 09:36:02;;;;;;;;;;;14.60;65.70;;;;;;5016300;28;19921;-84
2022/09/21 09:38:31;;;;;;;;;;;14.70;65.80;;;;;;5015253;28;19921;-87
2022/09/21 09:41:00;;;;;;;;;;;14.80;66.00;;;;;;4998953;28;20286;-84
2022/09/21 09:43:35;;;;;;;;;;;14.90;66.00;;;;;;5014184;28;19916;-84
2022/09/21 09:46:06;;;;;;;;;;;15.10;66.20;;;;;;5014385;28;19914;-86
2022/09/21 09:48:35;;;;;;;;;;;15.20;66.20;;;;;;5015129;28;20325;-80
2022/09/21 09:51:00;;;;;;;;;;;15.30;66.10;;;;;;5014414;28;19924;-82
2022/09/21 09:53:26;;;;;;;;;;;15.40;66.00;;;;;;5014134;28;20352;-82
2022/09/21 09:55:53;;;;;;;;;;;15.50;65.80;;;;;;5015836;28;19917;-88
2022/09/21 09:58:21;;;;;;;;;;;15.60;65.60;;;;;;5014804;28;19918;-88
2022/09/21 10:00:53;;;;;;;;;;;15.70;65.40;;;;;;5015134;28;19931;-88
2022/09/21 10:03:26;;;;;;;;;;;15.80;65.30;;;;;;4998912;28;20412;-87
2022/09/21 10:05:53;;;;;;;;;;;15.90;65.10;;;;;;5030998;28;19917;-88
2022/09/21 10:08:34;;;;;;;;;;;16.00;65.10;;;;;;4997967;28;19914;-88
2022/09/21 10:11:02;;;;;;;;;;;16.10;65.00;;;;;;4998159;28;20247;-89
2022/09/21 10:13:35;;;;;;;;;;;16.20;64.80;;;;;;4981809;28;19910;-91
2022/09/21 10:16:04;;;;;;;;;;;16.20;64.60;;;;;;4997133;28;19922;-80
2022/09/21 10:18:45;;;;;;;;;;;16.30;64.50;;;;;;4997410;28;19952;-85
2022/09/21 10:21:16;;;;;;;;;;;16.40;64.30;;;;;;5013476;28;19913;-83
2022/09/21 10:23:47;;;;;;;;;;;16.50;64.10;;;;;;5012761;28;20378;-81
2022/09/21 10:26:13;;;;;;;;;;;16.60;64.10;;;;;;5013358;28;20381;-82
2022/09/21 10:28:56;;;;;;;;;;;16.70;64.00;;;;;;5012978;28;19910;-81
2022/09/21 10:31:22;;;;;;;;;;;16.70;63.80;;;;;;4996679;28;19976;-82
2022/09/21 10:33:53;;;;;;;;;;;16.80;63.70;;;;;;5014064;28;19936;-81
2022/09/21 10:36:23;;;;;;;;;;;16.90;63.60;;;;;;5013910;28;19909;-80
2022/09/21 10:38:50;;;;;;;;;;;17.00;63.60;;;;;;5014090;28;20011;-78
2022/09/21 10:41:15;;;;;;;;;;;17.10;63.60;;;;;;5014203;28;19940;-84
2022/09/21 10:43:42;;;;;;;;;;;17.10;63.50;;;;;;5013082;28;20362;-84
2022/09/21 10:46:07;;;;;;;;;;;17.10;63.50;;;;;;5013004;28;19909;-83
2022/09/21 10:48:33;;;;;;;;;;;17.20;63.50;;;;;;5012754;28;19921;-82
2022/09/21 10:50:59;;;;;;;;;;;17.30;63.50;;;;;;5014294;28;20004;-83
2022/09/21 10:53:29;;;;;;;;;;;17.40;63.50;;;;;;5013379;28;19944;-87
2022/09/21 10:55:57;;;;;;;;;;;17.40;63.50;;;;;;5014491;28;19921;-85
2022/09/21 10:58:23;;;;;;;;;;;17.50;63.50;;;;;;4997074;28;19956;-85
2022/09/21 11:00:52;;;;;;;;;;;17.50;63.50;;;;;;4997525;28;19913;-86
2022/09/21 11:03:39;;;;;;;;;;;17.60;63.60;;;;;;5014350;28;20012;-87
2022/09/21 11:06:10;;;;;;;;;;;17.70;63.80;;;;;;5013977;28;19967;-85
2022/09/21 11:08:43;;;;;;;;;;;17.70;63.80;;;;;;5013159;28;19971;-85
2022/09/21 11:11:20;;;;;;;;;;;17.80;63.90;;;;;;5013932;28;19913;-81
2022/09/21 11:13:45;;;;;;;;;;;17.80;64.00;;;;;;5015756;28;19921;-84
2022/09/21 11:16:15;;;;;;;;;;;17.80;64.00;;;;;;5015601;28;19921;-83
2022/09/21 11:18:53;;;;;;;;;;;17.80;64.00;;;;;;5013886;28;20008;-85
2022/09/21 11:21:26;;;;;;;;;;;17.90;64.10;;;;;;5013664;28;19918;-84
2022/09/21 11:24:07;;;;;;;;;;;17.90;64.10;;;;;;5014292;28;20033;-85
2022/09/21 11:26:39;;;;;;;;;;;18.00;64.20;;;;;;5013404;28;19913;-86
2022/09/21 11:29:16;;;;;;;;;;;18.00;64.20;;;;;;5031092;28;19921;-87
2022/09/21 11:32:01;;;;;;;;;;;18.10;64.30;;;;;;5016005;28;19928;-89
2022/09/21 11:34:45;;;;;;;;;;;18.10;64.30;;;;;;5018372;28;20374;-87
2022/09/21 11:37:17;;;;;;;;;;;18.10;64.30;;;;;;5017521;28;20374;-86
2022/09/21 11:40:01;;;;;;;;;;;18.10;64.30;;;;;;5017940;28;19924;-88
2022/09/21 11:42:46;;;;;;;;;;;18.20;64.40;;;;;;5017093;28;19993;-87
2022/09/21 11:45:26;;;;;;;;;;;18.20;64.40;;;;;;5018193;28;19917;-89
2022/09/21 11:48:02;;;;;;;;;;;18.20;64.40;;;;;;5018532;28;19921;-86
2022/09/21 11:50:31;;;;;;;;;;;18.30;64.50;;;;;;5016904;28;19929;-86
2022/09/21 11:53:15;;;;;;;;;;;18.30;64.50;;;;;;5016566;28;20370;-86
2022/09/21 11:55:53;;;;;;;;;;;18.30;64.50;;;;;;5017556;28;19921;-85
2022/09/21 11:58:24;;;;;;;;;;;18.40;64.60;;;;;;5000463;28;19935;-84
2022/09/21 12:00:50;;;;;;;;;;;18.40;64.70;;;;;;5016944;28;19910;-85
2022/09/21 12:03:16;;;;;;;;;;;18.40;64.70;;;;;;5017452;28;19925;-86
2022/09/21 12:06:05;;;;;;;;;;;18.50;64.70;;;;;;5016767;28;19984;-88
2022/09/21 12:08:48;;;;;;;;;;;18.50;64.70;;;;;;5018068;28;20012;-83
2022/09/21 12:11:36;;;;;;;;;;;18.50;64.60;;;;;;5016791;28;19913;-86
2022/09/21 12:14:21;;;;;;;;;;;18.60;64.60;;;;;;5020364;28;19960;-95
2022/09/21 12:17:01;;;;;;;;;;;18.60;64.60;;;;;;5034580;28;19913;-84
2022/09/21 12:19:32;;;;;;;;;;;18.60;64.50;;;;;;5029698;28;19928;-89
2022/09/21 12:22:02;;;;;;;;;;;18.70;64.50;;;;;;5025331;28;19914;-87
2022/09/21 12:24:34;;;;;;;;;;;18.70;64.50;;;;;;5027247;28;19910;-88
2022/09/21 12:27:10;;;;;;;;;;;18.70;64.40;;;;;;5023143;28;19914;-89
2022/09/21 12:29:46;;;;;;;;;;;18.80;64.50;;;;;;5016803;28;20012;-88
2022/09/21 12:32:27;;;;;;;;;;;18.80;64.50;;;;;;5017460;28;19914;-90
2022/09/21 12:34:54;;;;;;;;;;;18.80;64.40;;;;;;5016138;28;19921;-89
2022/09/21 12:37:30;;;;;;;;;;;18.90;64.40;;;;;;5019895;28;19913;-88
2022/09/21 12:39:59;;;;;;;;;;;18.90;64.40;;;;;;5016106;28;19917;-89
2022/09/21 12:42:34;;;;;;;;;;;18.90;64.30;;;;;;5016161;28;19914;-89
2022/09/21 12:45:21;;;;;;;;;;;18.90;64.30;;;;;;5016565;28;19937;-88
2022/09/21 12:48:06;;;;;;;;;;;19.00;64.40;;;;;;5016166;28;20037;-86
2022/09/21 12:50:47;;;;;;;;;;;19.00;64.30;;;;;;5016379;28;19910;-89
2022/09/21 12:53:18;;;;;;;;;;;19.10;64.30;;;;;;5015745;28;20386;-88
2022/09/21 12:56:02;;;;;;;;;;;19.10;64.30;;;;;;5016044;28;19924;-95
2022/09/21 12:58:43;;;;;;;;;;;19.10;64.20;;;;;;5017174;28;19971;-91
2022/09/21 13:01:27;;;;;;;;;;;19.10;64.20;;;;;;5016197;28;19996;-88
2022/09/21 13:04:11;;;;;;;;;;;19.20;64.20;;;;;;5016705;28;20392;-91
2022/09/21 13:06:49;;;;;;;;;;;19.20;64.10;;;;;;5016677;28;19921;-89
2022/09/21 13:09:16;;;;;;;;;;;19.30;64.10;;;;;;5015708;28;19913;-88
2022/09/21 13:11:53;;;;;;;;;;;19.30;63.80;;;;;;5016560;28;19909;-91
2022/09/21 13:14:19;;;;;;;;;;;19.30;63.60;;;;;;5015320;28;19918;-86
2022/09/21 13:16:52;;;;;;;;;;;19.40;63.60;;;;;;4999848;28;19917;-88
2022/09/21 13:19:22;;;;;;;;;;;19.40;63.40;;;;;;5015392;28;19910;-85
2022/09/21 13:22:10;;;;;;;;;;;19.40;63.40;;;;;;5016324;28;20377;-86
2022/09/21 13:24:36;;;;;;;;;;;19.40;63.30;;;;;;5016071;28;19953;-89
2022/09/21 13:27:05;;;;;;;;;;;19.40;63.30;;;;;;4998663;28;19954;-86
2022/09/21 13:29:35;;;;;;;;;;;19.50;63.30;;;;;;5016523;28;19917;-88
2022/09/21 13:32:21;;;;;;;;;;;19.50;63.30;;;;;;5015138;28;19916;-86
2022/09/21 13:34:50;;;;;;;;;;;19.50;63.20;;;;;;5014544;28;19922;-85
2022/09/21 13:37:19;;;;;;;;;;;19.50;63.20;;;;;;5015863;28;20007;-89
2022/09/21 13:39:47;;;;;;;;;;;19.60;63.30;;;;;;5015040;28;19909;-88
2022/09/21 13:42:31;;;;;;;;;;;19.60;63.20;;;;;;5015318;28;19913;-88
2022/09/21 13:45:03;;;;;;;;;;;19.60;63.00;;;;;;5016974;28;19913;-86
2022/09/21 13:47:33;;;;;;;;;;;19.60;62.80;;;;;;5015847;28;19971;-85
2022/09/21 13:50:03;;;;;;;;;;;19.70;62.80;;;;;;5015145;28;20005;-87
2022/09/21 13:52:35;;;;;;;;;;;19.70;62.70;;;;;;5006410;28;19933;-87
2022/09/21 13:55:03;;;;;;;;;;;19.70;62.70;;;;;;5015107;28;19964;-88
2022/09/21 13:57:45;;;;;;;;;;;19.70;62.50;;;;;;5015108;28;19917;-88
2022/09/21 14:00:11;;;;;;;;;;;19.70;62.40;;;;;;5014849;28;19920;-86
2022/09/21 14:02:55;;;;;;;;;;;19.70;62.30;;;;;;5014838;28;19953;-86
2022/09/21 14:05:31;;;;;;;;;;;19.80;62.40;;;;;;5016079;28;20450;-86
2022/09/21 14:07:57;;;;;;;;;;;19.80;62.30;;;;;;5031926;28;19913;-87
2022/09/21 14:10:23;;;;;;;;;;;19.80;62.40;;;;;;4997827;28;19920;-85
2022/09/21 14:12:49;;;;;;;;;;;19.80;62.40;;;;;;5014668;28;20381;-87
2022/09/21 14:15:15;;;;;;;;;;;19.90;62.50;;;;;;4998230;28;19926;-88
2022/09/21 14:17:41;;;;;;;;;;;19.80;62.40;;;;;;5014218;28;19914;-87
2022/09/21 14:20:25;;;;;;;;;;;19.80;62.50;;;;;;4997943;28;20401;-88
2022/09/21 14:23:27;;;;;;;;;;;19.90;62.60;;;;;;5015378;28;19909;-84
2022/09/21 14:25:55;;;;;;;;;;;19.90;62.60;;;;;;4993645;28;19925;-90
2022/09/21 14:28:41;;;;;;;;;;;19.90;62.60;;;;;;5011848;28;19952;-90
2022/09/21 14:31:12;;;;;;;;;;;19.90;62.60;;;;;;5015702;28;19910;-90
2022/09/21 14:33:47;;;;;;;;;;;19.90;62.70;;;;;;5015985;28;19921;-88
2022/09/21 14:36:15;;;;;;;;;;;19.90;63.30;;;;;;5014451;28;19932;-89
2022/09/21 14:38:47;;;;;;;;;;;19.90;62.70;;;;;;5015177;28;19909;-90